Time;durP1;ratioP1;P1;durP2;ratioP2;P2;SDS_P1;SDS_P2;PMS_P1;PMS_P2;Temp;Humidity;BMP_temperature;BMP_pressure;BME280_temperature;BME280_humidity;BME280_pressure;Samples;Min_cycle;Max_cycle;Signal;HPM_P1;HPM_P2
2023/05/07 00:01:02;;;;;;;5.67;2.50;;;11.60;99.90;;;;;;4968445;28;20184;-69
2023/05/07 00:03:28;;;;;;;2.90;1.73;;;11.60;99.90;;;;;;4968156;28;20180;-68
2023/05/07 00:05:54;;;;;;;5.40;1.60;;;11.70;99.90;;;;;;4968370;28;20425;-68
2023/05/07 00:08:20;;;;;;;2.57;1.53;;;11.70;99.90;;;;;;4972451;28;20501;-69
2023/05/07 00:10:46;;;;;;;4.27;1.80;;;11.70;99.90;;;;;;4972362;28;20645;-68
2023/05/07 00:13:12;;;;;;;3.73;1.40;;;11.70;99.90;;;;;;4972230;28;20454;-69
2023/05/07 00:15:37;;;;;;;3.80;1.60;;;11.70;99.90;;;;;;4970958;28;20293;-69
2023/05/07 00:18:03;;;;;;;1.93;1.20;;;11.70;99.90;;;;;;4972220;28;20246;-68
2023/05/07 00:20:29;;;;;;;4.77;1.37;;;11.60;99.90;;;;;;4967888;28;20194;-69
2023/05/07 00:22:54;;;;;;;2.27;1.37;;;11.60;99.90;;;;;;4955607;28;20235;-68
2023/05/07 00:25:20;;;;;;;2.43;1.60;;;11.60;99.90;;;;;;4969865;28;20189;-68
2023/05/07 00:27:45;;;;;;;3.47;1.60;;;11.60;99.90;;;;;;4972416;28;20204;-68
2023/05/07 00:30:12;;;;;;;2.40;1.23;;;11.60;99.90;;;;;;4974917;28;20188;-68
2023/05/07 00:32:38;;;;;;;3.50;1.53;;;11.50;99.90;;;;;;4971416;28;20209;-69
2023/05/07 00:35:04;;;;;;;5.27;1.97;;;11.60;99.90;;;;;;4958444;28;20450;-69
2023/05/07 00:37:30;;;;;;;2.73;1.63;;;11.50;99.90;;;;;;4965964;28;20423;-69
2023/05/07 00:39:56;;;;;;;4.53;1.60;;;11.50;99.90;;;;;;4975601;28;20435;-68
2023/05/07 00:42:22;;;;;;;2.77;1.33;;;11.50;99.90;;;;;;4975553;28;20188;-69
2023/05/07 00:44:48;;;;;;;4.93;1.60;;;11.50;99.90;;;;;;4975508;28;20514;-68
2023/05/07 00:47:14;;;;;;;3.73;1.60;;;11.50;99.90;;;;;;4975813;28;20188;-69
2023/05/07 00:49:42;;;;;;;4.70;1.57;;;11.50;99.90;;;;;;4974820;28;20276;-68
2023/05/07 00:52:11;;;;;;;1.73;1.10;;;11.50;99.90;;;;;;4970578;28;20256;-69
2023/05/07 00:54:37;;;;;;;3.80;1.50;;;11.50;99.90;;;;;;4972115;28;20818;-69
2023/05/07 00:57:03;;;;;;;2.13;1.37;;;11.50;99.90;;;;;;4975680;28;20420;-69
2023/05/07 00:59:33;;;;;;;2.80;1.30;;;11.50;99.90;;;;;;4975267;28;20188;-69
2023/05/07 01:01:59;;;;;;;3.77;1.73;;;11.50;99.90;;;;;;4974569;28;20432;-69
2023/05/07 01:04:26;;;;;;;3.70;1.90;;;11.40;99.90;;;;;;4958028;28;20429;-69
2023/05/07 01:06:53;;;;;;;2.87;1.70;;;11.40;99.90;;;;;;4956444;28;20630;-69
2023/05/07 01:09:20;;;;;;;6.13;2.43;;;11.40;99.90;;;;;;4972914;28;20573;-69
2023/05/07 01:11:47;;;;;;;5.77;1.90;;;11.40;99.90;;;;;;4974893;28;20428;-69
2023/05/07 01:14:13;;;;;;;3.63;1.97;;;11.40;99.90;;;;;;4974128;28;20617;-70
2023/05/07 01:16:40;;;;;;;3.67;1.53;;;11.40;99.90;;;;;;4975509;28;20491;-70
2023/05/07 01:19:07;;;;;;;2.30;1.20;;;11.40;99.90;;;;;;4961833;28;20212;-70
2023/05/07 01:21:34;;;;;;;1.83;1.13;;;11.30;99.90;;;;;;4955861;28;20421;-70
2023/05/07 01:24:00;;;;;;;2.60;1.10;;;11.30;99.90;;;;;;4964759;28;20431;-69
2023/05/07 01:26:26;;;;;;;2.83;1.60;;;11.30;99.90;;;;;;4974778;28;20434;-70
2023/05/07 01:28:51;;;;;;;3.30;1.60;;;11.30;99.90;;;;;;4974727;28;20242;-69
2023/05/07 01:31:17;;;;;;;2.60;1.37;;;11.30;99.90;;;;;;4974997;28;20184;-70
2023/05/07 01:33:45;;;;;;;3.10;1.53;;;11.30;99.90;;;;;;4961432;28;20293;-69
2023/05/07 01:36:12;;;;;;;5.53;1.97;;;11.20;99.90;;;;;;4962107;28;20952;-70
2023/05/07 01:38:40;;;;;;;2.73;1.70;;;11.20;99.90;;;;;;4961931;28;20424;-69
2023/05/07 01:41:06;;;;;;;3.07;1.50;;;11.20;99.90;;;;;;4974054;28;20516;-69
2023/05/07 01:43:32;;;;;;;4.00;1.80;;;11.20;99.90;;;;;;4974307;28;20927;-69
2023/05/07 01:45:58;;;;;;;2.40;1.13;;;11.20;99.90;;;;;;4974528;28;20452;-70
2023/05/07 01:48:24;;;;;;;3.10;1.70;;;11.20;99.90;;;;;;4949312;28;20211;-69
2023/05/07 01:50:51;;;;;;;3.53;1.40;;;11.10;99.90;;;;;;4974015;28;20420;-70
2023/05/07 01:53:16;;;;;;;7.43;1.90;;;11.20;99.90;;;;;;4974254;28;20428;-70
2023/05/07 01:55:42;;;;;;;2.27;1.37;;;11.30;99.90;;;;;;4974471;28;20420;-70
2023/05/07 01:58:08;;;;;;;2.97;1.70;;;11.20;99.90;;;;;;4970936;28;20195;-69
2023/05/07 02:00:34;;;;;;;3.47;1.63;;;11.20;99.90;;;;;;4968342;28;20264;-69
2023/05/07 02:03:00;;;;;;;2.40;1.50;;;11.20;99.90;;;;;;4974174;28;20188;-69
2023/05/07 02:05:26;;;;;;;3.90;1.60;;;11.20;99.90;;;;;;4963375;28;20428;-69
2023/05/07 02:07:51;;;;;;;7.03;1.90;;;11.20;99.90;;;;;;4974502;28;20668;-69
2023/05/07 02:10:17;;;;;;;4.20;1.60;;;11.20;99.90;;;;;;4961394;28;20223;-70
2023/05/07 02:12:42;;;;;;;4.40;2.03;;;11.30;99.90;;;;;;4973759;28;20189;-69
2023/05/07 02:15:08;;;;;;;2.13;1.40;;;11.10;99.90;;;;;;4973042;28;20708;-70
2023/05/07 02:17:35;;;;;;;9.53;2.13;;;11.10;99.90;;;;;;4973785;28;20220;-69
2023/05/07 02:20:00;;;;;;;3.03;1.67;;;11.10;99.90;;;;;;4973157;28;20621;-69
2023/05/07 02:22:26;;;;;;;2.53;1.20;;;11.00;99.90;;;;;;4956969;28;20420;-70
2023/05/07 02:24:52;;;;;;;5.87;1.57;;;11.00;99.90;;;;;;4967352;28;20192;-69
2023/05/07 02:27:17;;;;;;;2.43;1.40;;;10.90;99.90;;;;;;4973572;28;20212;-69
2023/05/07 02:29:43;;;;;;;2.33;1.43;;;10.90;99.90;;;;;;4973819;28;20184;-69
2023/05/07 02:32:08;;;;;;;5.27;2.23;;;10.90;99.90;;;;;;4968044;28;20236;-69
2023/05/07 02:34:34;;;;;;;4.13;2.43;;;10.90;99.90;;;;;;4964809;28;20188;-69
2023/05/07 02:36:59;;;;;;;3.10;1.63;;;10.90;99.90;;;;;;4962671;28;20211;-69
2023/05/07 02:39:25;;;;;;;2.67;1.80;;;10.80;99.90;;;;;;4973542;28;20238;-69
2023/05/07 02:41:51;;;;;;;2.90;2.10;;;10.80;99.90;;;;;;4973352;28;20549;-69
2023/05/07 02:44:16;;;;;;;6.43;2.17;;;10.80;99.90;;;;;;4973749;28;20306;-69
2023/05/07 02:46:42;;;;;;;5.70;2.37;;;10.80;99.90;;;;;;4973300;28;20606;-69
2023/05/07 02:49:07;;;;;;;4.00;1.90;;;10.70;99.90;;;;;;4973357;28;20208;-69
2023/05/07 02:51:33;;;;;;;3.83;1.60;;;10.70;99.90;;;;;;4972939;28;20632;-69
2023/05/07 02:54:00;;;;;;;4.00;2.10;;;10.60;99.90;;;;;;4972453;28;20192;-69
2023/05/07 02:56:26;;;;;;;5.03;2.23;;;10.60;99.90;;;;;;4973299;28;20223;-69
2023/05/07 02:58:52;;;;;;;8.63;2.10;;;10.60;99.90;;;;;;4963652;28;20425;-69
2023/05/07 03:01:18;;;;;;;5.70;1.77;;;10.40;99.90;;;;;;4966141;28;20447;-69
2023/05/07 03:03:44;;;;;;;3.50;2.10;;;10.40;99.90;;;;;;4972943;28;20181;-69
2023/05/07 03:06:10;;;;;;;3.43;2.37;;;10.30;99.90;;;;;;4968377;28;20189;-69
2023/05/07 03:08:36;;;;;;;4.30;1.90;;;10.30;99.90;;;;;;4964646;28;20471;-69
2023/05/07 03:11:02;;;;;;;5.13;2.40;;;10.20;99.90;;;;;;4973115;28;20188;-69
2023/05/07 03:13:27;;;;;;;4.13;2.00;;;10.30;99.90;;;;;;4971374;28;20428;-69
2023/05/07 03:15:53;;;;;;;3.90;2.13;;;10.20;99.90;;;;;;4972658;28;20191;-69
2023/05/07 03:18:19;;;;;;;4.13;2.10;;;10.20;99.90;;;;;;4973286;28;20192;-69
2023/05/07 03:20:44;;;;;;;3.90;1.60;;;10.20;99.90;;;;;;4966630;28;20627;-69
2023/05/07 03:23:10;;;;;;;3.73;2.03;;;10.20;99.90;;;;;;4956510;28;20677;-69
2023/05/07 03:25:36;;;;;;;3.73;1.97;;;10.10;99.90;;;;;;4972478;28;20199;-69
2023/05/07 03:28:01;;;;;;;2.90;1.30;;;10.20;99.90;;;;;;4972910;28;20279;-69
2023/05/07 03:30:27;;;;;;;2.97;1.70;;;10.20;99.90;;;;;;4972643;28;20564;-69
2023/05/07 03:32:52;;;;;;;3.70;2.07;;;10.20;99.90;;;;;;4966317;28;20265;-69
2023/05/07 03:35:18;;;;;;;4.50;2.10;;;10.20;99.90;;;;;;4964682;28;20205;-69
2023/05/07 03:37:44;;;;;;;2.93;1.83;;;10.20;99.90;;;;;;4966623;28;20622;-69
2023/05/07 03:40:10;;;;;;;3.83;2.20;;;10.10;99.90;;;;;;4972574;28;20188;-69
2023/05/07 03:42:36;;;;;;;2.43;1.60;;;10.10;99.90;;;;;;4972180;28;20194;-69
2023/05/07 03:45:02;;;;;;;3.97;2.17;;;10.00;99.90;;;;;;4966902;28;20523;-69
2023/05/07 03:47:27;;;;;;;3.53;2.10;;;10.00;99.90;;;;;;4965797;28;20959;-69
2023/05/07 03:49:54;;;;;;;4.40;1.83;;;10.00;99.90;;;;;;4971904;28;20192;-69
2023/05/07 03:52:23;;;;;;;3.70;2.23;;;10.00;99.90;;;;;;4971946;28;20184;-69
2023/05/07 03:54:49;;;;;;;3.70;2.10;;;10.00;99.90;;;;;;4966160;28;21118;-69
2023/05/07 03:57:15;;;;;;;4.30;2.37;;;10.00;99.90;;;;;;4966080;28;20495;-69
2023/05/07 03:59:40;;;;;;;4.37;2.10;;;10.00;99.90;;;;;;4972321;28;20185;-69
2023/05/07 04:02:06;;;;;;;5.00;1.93;;;10.00;99.90;;;;;;4969007;28;20192;-69
2023/05/07 04:04:32;;;;;;;3.80;1.83;;;9.90;99.90;;;;;;4968190;28;20277;-69
2023/05/07 04:06:59;;;;;;;2.70;1.73;;;9.90;99.90;;;;;;4969493;28;20180;-69
2023/05/07 04:09:25;;;;;;;4.60;2.00;;;9.90;99.90;;;;;;4975164;28;20952;-69
2023/05/07 04:11:50;;;;;;;3.13;1.83;;;9.90;99.90;;;;;;4975799;28;20430;-69
2023/05/07 04:14:16;;;;;;;2.80;1.63;;;9.90;99.90;;;;;;4975300;28;20195;-69
2023/05/07 04:16:41;;;;;;;4.43;1.50;;;9.90;99.90;;;;;;4976459;28;20191;-69
2023/05/07 04:19:07;;;;;;;2.73;1.50;;;9.90;99.90;;;;;;4976043;28;20860;-69
2023/05/07 04:21:33;;;;;;;3.73;1.97;;;10.00;99.90;;;;;;4963488;28;20177;-69
2023/05/07 04:23:58;;;;;;;7.03;2.10;;;9.90;99.90;;;;;;4975650;28;20214;-69
2023/05/07 04:26:24;;;;;;;4.87;2.23;;;9.90;99.90;;;;;;4976396;28;20203;-68
2023/05/07 04:28:50;;;;;;;8.60;2.33;;;9.80;99.90;;;;;;4963052;28;20299;-68
2023/05/07 04:31:16;;;;;;;3.83;1.97;;;9.90;99.90;;;;;;4975844;28;20199;-68
2023/05/07 04:33:41;;;;;;;11.73;2.50;;;9.90;99.90;;;;;;4962829;28;20412;-68
2023/05/07 04:36:07;;;;;;;5.23;1.83;;;9.90;99.90;;;;;;4959348;28;20543;-68
2023/05/07 04:38:33;;;;;;;4.20;2.43;;;9.80;99.90;;;;;;4974871;28;20220;-68
2023/05/07 04:41:04;;;;;;;3.40;1.60;;;9.80;99.90;;;;;;4975761;28;20196;-68
2023/05/07 04:43:29;;;;;;;4.37;2.00;;;9.80;99.90;;;;;;4975649;28;20192;-68
2023/05/07 04:45:55;;;;;;;10.40;5.00;;;9.90;99.90;;;;;;4975545;28;20458;-68
2023/05/07 04:48:20;;;;;;;12.53;4.63;;;9.90;99.90;;;;;;4975524;28;20216;-68
2023/05/07 04:50:50;;;;;;;15.43;4.33;;;9.90;99.90;;;;;;4974580;28;20180;-68
2023/05/07 04:53:16;;;;;;;7.97;3.90;;;9.90;99.90;;;;;;4966595;28;20268;-68
2023/05/07 04:55:41;;;;;;;9.10;3.80;;;10.00;99.90;;;;;;4975809;28;20466;-69
2023/05/07 04:58:07;;;;;;;7.67;2.43;;;10.00;99.90;;;;;;4975589;28;20447;-69
2023/05/07 05:00:33;;;;;;;9.03;3.23;;;9.90;99.90;;;;;;4963504;28;20209;-68
2023/05/07 05:02:59;;;;;;;3.30;2.13;;;10.10;99.90;;;;;;4971011;28;20464;-69
2023/05/07 05:05:25;;;;;;;7.57;2.53;;;10.20;99.90;;;;;;4967605;28;20247;-68
2023/05/07 05:07:51;;;;;;;3.37;2.00;;;10.30;99.90;;;;;;4975227;28;20212;-69
2023/05/07 05:10:17;;;;;;;4.67;2.40;;;10.40;99.90;;;;;;4975283;28;20519;-68
2023/05/07 05:12:43;;;;;;;3.30;1.73;;;10.50;99.90;;;;;;4961942;28;20717;-69
2023/05/07 05:15:10;;;;;;;3.70;2.33;;;10.60;99.90;;;;;;4973729;28;20512;-69
2023/05/07 05:17:36;;;;;;;5.70;2.10;;;10.60;99.90;;;;;;4974702;28;20600;-69
2023/05/07 05:20:02;;;;;;;4.27;2.20;;;10.70;99.90;;;;;;4974378;28;20431;-70
2023/05/07 05:22:30;;;;;;;4.87;2.00;;;10.80;99.90;;;;;;4956375;28;20417;-70
2023/05/07 05:24:56;;;;;;;4.87;1.90;;;10.70;99.90;;;;;;4969146;28;20552;-70
2023/05/07 05:27:22;;;;;;;3.90;1.77;;;10.90;99.90;;;;;;4975119;28;20502;-69
2023/05/07 05:29:47;;;;;;;6.13;2.40;;;11.00;99.90;;;;;;4961383;28;20182;-70
2023/05/07 05:32:13;;;;;;;2.40;1.60;;;11.10;99.90;;;;;;4973243;28;20231;-70
2023/05/07 05:34:38;;;;;;;4.20;1.93;;;11.30;99.90;;;;;;4955763;28;20174;-70
2023/05/07 05:37:04;;;;;;;3.63;2.57;;;11.30;99.90;;;;;;4965079;28;20259;-69
2023/05/07 05:39:29;;;;;;;5.17;2.83;;;11.40;99.90;;;;;;4966149;28;20181;-70
2023/05/07 05:41:55;;;;;;;7.10;2.90;;;11.50;99.90;;;;;;4974450;28;20195;-70
2023/05/07 05:44:21;;;;;;;3.70;2.80;;;11.60;99.90;;;;;;4973985;28;20223;-70
2023/05/07 05:46:46;;;;;;;6.73;3.10;;;11.80;99.90;;;;;;4974273;28;20197;-70
2023/05/07 05:49:12;;;;;;;5.83;2.83;;;11.90;99.90;;;;;;4974448;28;20583;-70
2023/05/07 05:51:38;;;;;;;5.23;3.13;;;12.00;99.90;;;;;;4962537;28;20305;-69
2023/05/07 05:54:04;;;;;;;4.90;2.60;;;12.20;99.90;;;;;;4974672;28;20503;-70
2023/05/07 05:56:30;;;;;;;3.90;2.00;;;12.40;99.90;;;;;;4967911;28;20193;-70
2023/05/07 05:58:55;;;;;;;5.53;2.60;;;12.40;99.90;;;;;;4957942;28;20439;-70
2023/05/07 06:01:21;;;;;;;8.80;3.73;;;12.60;99.90;;;;;;4974102;28;20231;-70
2023/05/07 06:03:47;;;;;;;6.70;2.83;;;12.80;99.90;;;;;;4974146;28;20196;-70
2023/05/07 06:06:14;;;;;;;5.33;2.60;;;13.00;99.90;;;;;;4967764;28;20296;-69
2023/05/07 06:08:40;;;;;;;5.93;2.60;;;13.10;99.90;;;;;;4967822;28;20200;-69
2023/05/07 06:11:05;;;;;;;5.77;3.37;;;13.30;99.90;;;;;;4954529;28;20436;-70
2023/05/07 06:13:31;;;;;;;3.23;1.90;;;13.40;99.90;;;;;;4972807;28;20191;-70
2023/05/07 06:15:56;;;;;;;6.03;3.03;;;13.60;99.90;;;;;;4973812;28;20617;-70
2023/05/07 06:18:22;;;;;;;5.40;2.67;;;13.70;99.90;;;;;;4973979;28;20579;-69
2023/05/07 06:20:48;;;;;;;2.80;1.80;;;13.80;99.90;;;;;;4967311;28;20189;-70
2023/05/07 06:23:14;;;;;;;9.50;1.80;;;13.90;99.90;;;;;;4965117;28;20212;-69
2023/05/07 06:25:39;;;;;;;2.60;1.57;;;14.00;99.90;;;;;;4967552;28;20188;-70
2023/05/07 06:28:06;;;;;;;4.80;2.53;;;14.10;99.90;;;;;;4954505;28;20463;-70
2023/05/07 06:30:31;;;;;;;3.37;1.77;;;14.30;99.90;;;;;;4973646;28;20231;-70
2023/05/07 06:32:57;;;;;;;4.27;2.43;;;14.40;99.90;;;;;;4966601;28;20416;-70
2023/05/07 06:35:22;;;;;;;3.03;1.93;;;14.50;99.90;;;;;;4956868;28;20193;-70
2023/05/07 06:37:48;;;;;;;3.70;2.50;;;14.70;99.90;;;;;;4967195;28;20199;-70
2023/05/07 06:40:14;;;;;;;4.97;1.90;;;14.80;99.90;;;;;;4973550;28;20224;-70
2023/05/07 06:42:40;;;;;;;4.67;1.90;;;14.90;99.90;;;;;;4973175;28;20917;-70
2023/05/07 06:45:06;;;;;;;3.80;2.27;;;15.10;99.90;;;;;;4973597;28;20967;-70
2023/05/07 06:47:32;;;;;;;4.60;2.27;;;15.20;99.90;;;;;;4973431;28;20442;-70
2023/05/07 06:49:57;;;;;;;6.10;2.77;;;15.40;99.90;;;;;;4973208;28;20754;-70
2023/05/07 06:52:23;;;;;;;2.67;1.97;;;15.50;99.90;;;;;;4966106;28;20527;-70
2023/05/07 06:54:48;;;;;;;4.80;2.70;;;15.60;99.90;;;;;;4972229;28;20212;-70
2023/05/07 06:57:14;;;;;;;2.83;1.47;;;15.80;99.90;;;;;;4972997;28;20179;-70
2023/05/07 06:59:40;;;;;;;3.70;1.97;;;16.10;99.90;;;;;;4962817;28;20187;-70
2023/05/07 07:02:06;;;;;;;3.67;2.23;;;16.20;99.90;;;;;;4969066;28;20188;-70
2023/05/07 07:04:31;;;;;;;4.63;2.20;;;16.40;99.90;;;;;;4972986;28;20256;-70
2023/05/07 07:06:57;;;;;;;4.03;1.80;;;16.60;99.90;;;;;;4973395;28;20550;-70
2023/05/07 07:09:22;;;;;;;3.20;1.70;;;17.00;99.90;;;;;;4973056;28;20208;-70
2023/05/07 07:11:48;;;;;;;8.13;2.07;;;17.30;99.90;;;;;;4971444;28;20297;-70
2023/05/07 07:14:14;;;;;;;2.50;1.40;;;17.40;99.90;;;;;;4970082;28;20188;-71
2023/05/07 07:16:40;;;;;;;3.10;1.90;;;17.70;99.90;;;;;;4973195;28;20184;-70
2023/05/07 07:19:06;;;;;;;3.67;2.00;;;18.20;99.90;;;;;;4972352;28;20923;-71
2023/05/07 07:21:32;;;;;;;3.70;1.67;;;18.50;99.90;;;;;;4960505;28;20425;-71
2023/05/07 07:23:57;;;;;;;3.33;1.47;;;18.90;99.90;;;;;;4962004;28;20620;-71
2023/05/07 07:26:23;;;;;;;3.40;1.43;;;19.00;99.90;;;;;;4972553;28;20578;-70
2023/05/07 07:28:48;;;;;;;2.53;1.60;;;19.00;99.90;;;;;;4967287;28;20219;-71
2023/05/07 07:31:14;;;;;;;2.30;1.30;;;19.20;99.90;;;;;;4965078;28;20180;-71
2023/05/07 07:33:40;;;;;;;2.20;1.43;;;19.60;99.90;;;;;;4959795;28;20572;-71
2023/05/07 07:36:07;;;;;;;2.30;1.23;;;20.00;99.90;;;;;;4956024;28;20922;-70
2023/05/07 07:38:33;;;;;;;1.70;1.10;;;20.70;97.50;;;;;;4970076;28;20223;-69
2023/05/07 07:40:59;;;;;;;1.70;1.10;;;20.90;97.60;;;;;;4970278;28;20923;-70
2023/05/07 07:43:25;;;;;;;6.50;1.87;;;21.00;97.60;;;;;;4958368;28;20263;-69
2023/05/07 07:45:51;;;;;;;2.90;1.70;;;21.60;97.10;;;;;;4971620;28;20839;-70
2023/05/07 07:48:16;;;;;;;5.23;2.03;;;22.10;95.80;;;;;;4972234;28;20211;-72
2023/05/07 07:50:42;;;;;;;2.63;1.20;;;21.90;95.30;;;;;;4971026;28;20183;-71
2023/05/07 07:53:08;;;;;;;2.33;1.20;;;22.30;94.80;;;;;;4963720;28;20266;-70
2023/05/07 07:55:39;;;;;;;2.90;1.53;;;22.60;94.20;;;;;;4971614;28;20554;-71
2023/05/07 07:58:05;;;;;;;2.87;1.50;;;22.40;94.10;;;;;;4968944;28;20642;-71
2023/05/07 08:00:30;;;;;;;2.37;1.30;;;23.40;93.40;;;;;;4962154;28;20250;-72
2023/05/07 08:02:56;;;;;;;2.00;1.00;;;22.70;93.70;;;;;;4970757;28;20186;-72
2023/05/07 08:05:22;;;;;;;4.20;2.10;;;22.70;93.40;;;;;;4970953;28;20625;-71
2023/05/07 08:07:51;;;;;;;4.37;0.90;;;22.60;93.10;;;;;;4971575;28;20207;-72
2023/05/07 08:10:21;;;;;;;2.70;1.53;;;22.20;94.00;;;;;;4971184;28;20183;-72
2023/05/07 08:12:47;;;;;;;2.53;1.40;;;22.00;93.90;;;;;;4969750;28;20323;-72
2023/05/07 08:15:13;;;;;;;2.60;1.50;;;22.10;93.70;;;;;;4970537;28;20176;-72
2023/05/07 08:17:39;;;;;;;2.13;1.30;;;22.00;94.50;;;;;;4972011;28;20242;-72
2023/05/07 08:20:05;;;;;;;2.37;1.10;;;21.60;94.60;;;;;;4970604;28;20180;-72
2023/05/07 08:22:30;;;;;;;3.43;1.27;;;21.10;95.00;;;;;;4955421;28;20802;-71
2023/05/07 08:24:56;;;;;;;2.83;1.33;;;20.90;93.90;;;;;;4965743;28;20518;-71
2023/05/07 08:27:22;;;;;;;2.53;1.43;;;20.70;95.00;;;;;;4972013;28;20172;-72
2023/05/07 08:29:48;;;;;;;2.23;0.80;;;21.40;94.40;;;;;;4971634;28;20211;-72
2023/05/07 08:32:14;;;;;;;3.30;1.33;;;22.00;93.20;;;;;;4970490;28;20182;-72
2023/05/07 08:34:40;;;;;;;3.03;1.40;;;22.60;92.10;;;;;;4957245;28;20515;-71
2023/05/07 08:37:05;;;;;;;2.50;1.07;;;23.90;91.00;;;;;;4971876;28;20211;-73
2023/05/07 08:39:31;;;;;;;1.97;1.17;;;24.20;91.60;;;;;;4971970;28;20187;-72
2023/05/07 08:42:01;;;;;;;2.00;1.05;;;24.40;90.90;;;;;;4962321;28;20190;-72
2023/05/07 08:44:32;;;;;;;4.47;1.60;;;24.60;90.30;;;;;;4971288;28;20218;-70
2023/05/07 08:47:00;;;;;;;2.70;1.40;;;24.80;87.50;;;;;;4972020;28;20200;-71
2023/05/07 08:49:27;;;;;;;3.80;1.17;;;24.40;88.40;;;;;;4971036;28;20208;-71
2023/05/07 08:51:52;;;;;;;2.00;1.02;;;24.30;89.50;;;;;;4972593;28;20199;-71
2023/05/07 08:54:19;;;;;;;3.90;1.02;;;24.80;88.30;;;;;;4970538;28;20183;-71
2023/05/07 08:56:45;;;;;;;2.65;1.08;;;25.00;88.00;;;;;;4975295;28;20622;-71
2023/05/07 08:59:10;;;;;;;4.30;1.08;;;25.30;88.10;;;;;;4961465;28;20192;-71
2023/05/07 09:01:36;;;;;;;4.45;1.55;;;24.60;88.60;;;;;;4974737;28;20625;-71
2023/05/07 09:04:02;;;;;;;2.38;1.00;;;24.80;88.90;;;;;;4969793;28;20200;-71
2023/05/07 09:06:28;;;;;;;5.45;1.65;;;24.80;87.40;;;;;;4959588;28;20176;-70
2023/05/07 09:08:54;;;;;;;3.22;1.58;;;24.60;90.20;;;;;;4964540;28;20678;-71
2023/05/07 09:11:22;;;;;;;2.13;1.05;;;24.10;90.00;;;;;;4972921;28;20203;-71
2023/05/07 09:13:48;;;;;;;4.10;1.08;;;24.40;88.80;;;;;;4959373;28;20173;-71
2023/05/07 09:16:14;;;;;;;4.43;1.42;;;24.60;89.50;;;;;;4970587;28;20227;-71
2023/05/07 09:18:44;;;;;;;1.83;0.88;;;25.00;87.70;;;;;;4975369;28;20935;-71
2023/05/07 09:21:20;;;;;;;2.45;1.10;;;25.00;89.00;;;;;;4965674;28;20180;-71
2023/05/07 09:23:51;;;;;;;2.90;1.30;;;24.80;88.60;;;;;;4961506;28;21793;-70
2023/05/07 09:26:17;;;;;;;2.28;1.15;;;24.60;88.20;;;;;;4975450;28;20184;-71
2023/05/07 09:28:44;;;;;;;2.30;1.20;;;24.50;88.10;;;;;;4975204;28;20218;-71
2023/05/07 09:31:11;;;;;;;3.33;1.73;;;24.60;89.30;;;;;;4975198;28;20180;-70
2023/05/07 09:33:37;;;;;;;2.88;1.30;;;24.20;90.50;;;;;;4962841;28;20185;-71
2023/05/07 09:36:07;;;;;;;2.10;1.15;;;24.20;89.20;;;;;;4957888;28;20199;-70
2023/05/07 09:38:34;;;;;;;3.65;1.30;;;24.60;89.90;;;;;;4964233;28;20548;-70
2023/05/07 09:41:07;;;;;;;4.18;1.55;;;24.80;87.80;;;;;;4968514;28;20213;-70
2023/05/07 09:43:36;;;;;;;4.55;1.42;;;24.60;87.70;;;;;;4944463;28;20176;-70
2023/05/07 09:46:10;;;;;;;3.17;1.35;;;24.20;88.60;;;;;;4968938;28;20250;-70
2023/05/07 09:48:39;;;;;;;2.00;1.02;;;24.10;90.30;;;;;;4975112;28;20680;-70
2023/05/07 09:51:23;;;;;;;3.47;1.63;;;24.60;87.70;;;;;;4960898;28;20188;-69
2023/05/07 09:53:52;;;;;;;1.90;1.08;;;24.50;87.90;;;;;;4966416;28;20187;-70
2023/05/07 09:56:18;;;;;;;2.97;1.40;;;24.20;87.90;;;;;;4976444;28;20195;-70
2023/05/07 09:58:46;;;;;;;2.03;1.15;;;24.50;88.60;;;;;;4976314;28;20179;-70
2023/05/07 10:01:12;;;;;;;2.30;1.30;;;24.60;90.50;;;;;;4971271;28;20176;-69
2023/05/07 10:03:40;;;;;;;3.53;1.05;;;24.70;87.50;;;;;;4974724;28;20192;-70
2023/05/07 10:06:08;;;;;;;3.00;1.48;;;24.80;87.30;;;;;;4970002;28;20191;-69
2023/05/07 10:08:35;;;;;;;2.30;1.40;;;24.70;86.10;;;;;;4968196;28;20302;-69
2023/05/07 10:11:02;;;;;;;2.40;1.30;;;24.60;85.10;;;;;;4974759;28;20212;-69
2023/05/07 10:13:29;;;;;;;5.73;1.50;;;24.00;87.00;;;;;;4974704;28;20176;-69
2023/05/07 10:15:55;;;;;;;2.43;1.13;;;23.70;87.70;;;;;;4975442;28;20182;-70
2023/05/07 10:18:23;;;;;;;2.40;1.20;;;23.50;88.70;;;;;;4975763;28;20848;-70
2023/05/07 10:20:51;;;;;;;1.90;1.03;;;23.20;89.50;;;;;;4956184;28;20416;-69
2023/05/07 10:23:21;;;;;;;2.37;1.10;;;23.00;90.80;;;;;;4970071;28;20451;-69
2023/05/07 10:25:47;;;;;;;3.27;1.20;;;22.90;91.30;;;;;;4974173;28;20427;-68
2023/05/07 10:28:13;;;;;;;15.73;1.63;;;23.00;90.90;;;;;;4975317;28;20466;-68
2023/05/07 10:30:54;;;;;;;2.43;1.00;;;23.40;89.20;;;;;;4974041;28;20442;-69
2023/05/07 10:33:23;;;;;;;5.30;1.63;;;23.30;89.70;;;;;;4965254;28;20180;-69
2023/05/07 10:35:49;;;;;;;4.60;1.80;;;22.90;88.60;;;;;;4955576;29;20464;-69
2023/05/07 10:38:15;;;;;;;3.07;1.33;;;22.90;90.30;;;;;;4955989;29;20448;-69
2023/05/07 10:40:41;;;;;;;2.27;1.27;;;22.70;90.20;;;;;;4965264;28;20231;-69
2023/05/07 10:43:06;;;;;;;3.00;1.47;;;22.60;90.40;;;;;;4975236;28;20889;-69
2023/05/07 10:45:33;;;;;;;2.23;1.27;;;22.70;91.60;;;;;;4974937;28;20232;-69
2023/05/07 10:48:17;;;;;;;2.53;1.27;;;22.70;91.20;;;;;;4975002;28;20203;-69
2023/05/07 10:50:45;;;;;;;3.53;1.63;;;22.50;92.00;;;;;;4974815;28;20427;-69
2023/05/07 10:53:24;;;;;;;5.07;1.73;;;22.30;91.80;;;;;;4967793;28;20485;-69
2023/05/07 10:55:50;;;;;;;5.23;0.93;;;22.20;90.30;;;;;;4974396;28;20490;-69
2023/05/07 10:58:21;;;;;;;2.60;1.33;;;22.20;90.70;;;;;;4974633;28;20451;-70
2023/05/07 11:00:48;;;;;;;2.67;1.27;;;22.50;90.80;;;;;;4961251;28;20423;-70
2023/05/07 11:03:14;;;;;;;4.00;1.33;;;22.40;90.50;;;;;;4974787;28;20415;-69
2023/05/07 11:05:41;;;;;;;1.77;1.00;;;22.40;91.40;;;;;;4974597;28;20415;-70
2023/05/07 11:08:07;;;;;;;5.00;1.57;;;22.40;92.00;;;;;;4974819;28;20903;-69
2023/05/07 11:10:52;;;;;;;3.10;1.53;;;22.40;91.20;;;;;;4974942;28;20435;-69
2023/05/07 11:13:38;;;;;;;2.70;1.60;;;22.60;90.70;;;;;;4957913;28;20416;-70
2023/05/07 11:16:04;;;;;;;2.57;1.57;;;22.60;91.60;;;;;;4973951;28;20474;-70
2023/05/07 11:18:49;;;;;;;2.73;1.10;;;22.60;90.60;;;;;;4961558;28;20417;-70
2023/05/07 11:21:40;;;;;;;3.80;1.80;;;22.60;91.20;;;;;;4972175;28;20427;-70
2023/05/07 11:24:07;;;;;;;2.43;1.30;;;22.60;91.00;;;;;;4957470;28;20459;-70
2023/05/07 11:26:43;;;;;;;3.30;1.37;;;22.20;90.70;;;;;;4972305;28;20869;-70
2023/05/07 11:29:20;;;;;;;1.80;1.13;;;22.10;90.70;;;;;;4972720;28;20537;-71
2023/05/07 11:31:52;;;;;;;3.90;0.90;;;22.10;90.90;;;;;;4971826;28;20415;-71
2023/05/07 11:34:25;;;;;;;2.07;1.23;;;22.10;91.20;;;;;;4954328;28;20494;-71
2023/05/07 11:36:52;;;;;;;6.97;1.30;;;22.00;91.20;;;;;;4960420;28;20419;-70
2023/05/07 11:39:35;;;;;;;1.53;0.70;;;22.00;92.20;;;;;;4972248;28;20899;-67
2023/05/07 11:42:01;;;;;;;1.90;0.93;;;22.00;92.00;;;;;;4971340;28;20411;-71
2023/05/07 11:44:44;;;;;;;3.50;1.27;;;21.90;94.40;;;;;;4972092;28;20415;-71
2023/05/07 11:47:11;;;;;;;2.80;1.40;;;21.70;92.70;;;;;;4972220;28;20423;-69
2023/05/07 11:49:36;;;;;;;3.30;1.63;;;21.60;91.90;;;;;;4972214;28;20505;-64
2023/05/07 11:52:02;;;;;;;2.13;1.00;;;21.60;92.00;;;;;;4967904;28;20889;-69
2023/05/07 11:54:35;;;;;;;6.20;1.30;;;21.40;93.30;;;;;;4968770;28;20989;-70
2023/05/07 11:57:01;;;;;;;2.53;1.27;;;21.30;93.30;;;;;;4971877;28;20618;-69
2023/05/07 11:59:27;;;;;;;2.27;0.90;;;21.10;94.10;;;;;;4961509;28;20515;-69
2023/05/07 12:01:56;;;;;;;2.33;1.30;;;20.90;94.80;;;;;;4957865;28;20220;-69
2023/05/07 12:04:21;;;;;;;8.30;1.93;;;20.70;95.70;;;;;;4968886;28;20254;-69
2023/05/07 12:06:47;;;;;;;3.07;1.40;;;20.40;95.80;;;;;;4971809;28;20514;-69
2023/05/07 12:09:13;;;;;;;4.20;1.10;;;20.30;96.20;;;;;;4972428;28;20287;-69
2023/05/07 12:11:39;;;;;;;7.00;1.93;;;19.90;98.10;;;;;;4971575;28;20523;-71
2023/05/07 12:14:05;;;;;;;3.17;1.87;;;19.60;98.80;;;;;;4958132;28;20188;-71
2023/05/07 12:16:31;;;;;;;11.03;2.10;;;19.10;99.90;;;;;;4971917;28;20420;-72
2023/05/07 12:18:58;;;;;;;3.93;1.80;;;18.80;99.90;;;;;;4971743;28;20195;-72
2023/05/07 12:21:25;;;;;;;5.00;1.70;;;18.40;99.90;;;;;;4959679;28;20507;-72
2023/05/07 12:23:50;;;;;;;6.10;1.70;;;18.00;99.90;;;;;;4970430;28;20427;-71
2023/05/07 12:26:16;;;;;;;3.67;1.67;;;17.30;99.90;;;;;;4975154;28;20424;-73
2023/05/07 12:28:42;;;;;;;15.60;2.37;;;16.30;99.90;;;;;;4975933;28;20204;-72
2023/05/07 12:31:08;;;;;;;4.23;1.67;;;15.80;99.90;;;;;;4976116;28;20622;-72
2023/05/07 12:33:35;;;;;;;2.20;1.37;;;15.30;99.90;;;;;;4963628;28;20173;-72
2023/05/07 12:36:05;;;;;;;4.17;1.80;;;14.90;99.90;;;;;;4959117;28;20191;-71
2023/05/07 12:38:38;;;;;;;2.80;1.10;;;14.70;99.90;;;;;;4974038;28;20443;-71
2023/05/07 12:41:04;;;;;;;3.47;1.67;;;14.40;99.90;;;;;;4975514;28;20424;-71
2023/05/07 12:43:30;;;;;;;3.03;1.70;;;14.00;99.90;;;;;;4975369;28;20419;-73
2023/05/07 12:45:59;;;;;;;4.03;1.93;;;13.60;99.90;;;;;;4975774;28;20932;-73